Time;durP1;ratioP1;P1;durP2;ratioP2;P2;SDS_P1;SDS_P2;PMS_P1;PMS_P2;Temp;Humidity;BMP_temperature;BMP_pressure;BME280_temperature;BME280_humidity;BME280_pressure;Samples;Min_cycle;Max_cycle;Signal;HPM_P1;HPM_P2
2024/03/21 00:02:59;;;;;;;28.88;17.92;;;;;;;;;;12984648;22;20734;-91
2024/03/21 00:08:04;;;;;;;27.50;17.10;;;;;;;;;;12983838;22;20379;-90
2024/03/21 00:13:06;;;;;;;29.02;18.13;;;;;;;;;;12958611;22;20847;-90
2024/03/21 00:18:09;;;;;;;27.65;17.80;;;;;;;;;;12982932;22;20367;-90
2024/03/21 00:23:12;;;;;;;27.40;18.00;;;;;;;;;;12985015;22;20363;-90
2024/03/21 00:28:16;;;;;;;29.67;18.07;;;;;;;;;;12984291;22;20460;-90
2024/03/21 00:33:18;;;;;;;30.97;18.70;;;;;;;;;;12987567;22;20699;-89
2024/03/21 00:38:21;;;;;;;34.13;19.70;;;;;;;;;;12986534;22;20370;-90
2024/03/21 00:43:24;;;;;;;31.00;19.63;;;;;;;;;;12984546;22;20374;-91
2024/03/21 00:48:26;;;;;;;34.65;20.85;;;;;;;;;;12984788;22;20738;-90
2024/03/21 00:53:31;;;;;;;30.63;19.73;;;;;;;;;;12985968;22;20436;-90
2024/03/21 00:58:33;;;;;;;32.78;21.13;;;;;;;;;;12979823;22;20370;-90
2024/03/21 01:03:35;;;;;;;31.40;20.23;;;;;;;;;;12983553;22;20908;-90
2024/03/21 01:08:39;;;;;;;33.15;21.23;;;;;;;;;;12984504;22;20387;-91
2024/03/21 01:13:41;;;;;;;34.28;21.33;;;;;;;;;;13006247;22;20366;-91
2024/03/21 01:18:43;;;;;;;32.42;21.23;;;;;;;;;;12985294;22;20378;-90
2024/03/21 01:23:47;;;;;;;33.33;20.93;;;;;;;;;;12985012;22;20465;-90
2024/03/21 01:28:49;;;;;;;35.70;22.20;;;;;;;;;;12983993;22;20386;-90
2024/03/21 01:33:51;;;;;;;31.88;21.00;;;;;;;;;;12984540;22;20823;-90
2024/03/21 01:38:55;;;;;;;30.55;19.40;;;;;;;;;;12983752;22;20366;-90
2024/03/21 01:43:57;;;;;;;29.00;19.38;;;;;;;;;;12983446;22;20437;-90
2024/03/21 01:48:59;;;;;;;28.50;19.88;;;;;;;;;;12984581;22;20440;-89
2024/03/21 01:54:03;;;;;;;31.30;19.60;;;;;;;;;;12984489;22;20886;-90
2024/03/21 01:59:05;;;;;;;34.35;20.92;;;;;;;;;;12983868;22;20395;-90
2024/03/21 02:04:07;;;;;;;32.08;20.17;;;;;;;;;;12983390;22;20367;-90
2024/03/21 02:09:11;;;;;;;34.50;20.70;;;;;;;;;;12983287;22;20370;-91
2024/03/21 02:14:15;;;;;;;32.30;21.10;;;;;;;;;;12981989;22;20370;-90
2024/03/21 02:19:17;;;;;;;32.20;21.03;;;;;;;;;;12985739;22;20371;-91
2024/03/21 02:24:23;;;;;;;31.63;20.30;;;;;;;;;;12984298;22;20367;-90
2024/03/21 02:29:25;;;;;;;35.13;21.67;;;;;;;;;;12982143;22;20382;-90
2024/03/21 02:34:27;;;;;;;32.83;21.10;;;;;;;;;;12983124;22;20366;-89
2024/03/21 02:39:31;;;;;;;32.67;22.03;;;;;;;;;;12981357;22;20371;-90
2024/03/21 02:44:33;;;;;;;36.00;22.08;;;;;;;;;;12983424;22;20367;-90
2024/03/21 02:49:35;;;;;;;35.38;22.35;;;;;;;;;;12983354;22;20464;-90
2024/03/21 02:54:39;;;;;;;34.60;21.87;;;;;;;;;;12984886;22;20459;-90
2024/03/21 02:59:41;;;;;;;35.72;23.48;;;;;;;;;;12986156;22;20371;-91
2024/03/21 03:04:43;;;;;;;35.73;21.67;;;;;;;;;;12987787;22;20366;-90
2024/03/21 03:09:47;;;;;;;34.30;21.73;;;;;;;;;;12986449;22;20382;-90
2024/03/21 03:14:49;;;;;;;34.20;21.45;;;;;;;;;;12986898;22;20402;-90
2024/03/21 03:19:51;;;;;;;33.80;21.37;;;;;;;;;;12987160;22;20367;-91
2024/03/21 03:24:55;;;;;;;36.05;22.45;;;;;;;;;;12985943;22;20362;-90
2024/03/21 03:29:57;;;;;;;33.43;21.60;;;;;;;;;;12987538;22;20449;-90
2024/03/21 03:40:20;;;;;;;36.30;22.45;;;;;;;;;;13007985;22;20429;-89
2024/03/21 03:45:23;;;;;;;33.60;21.55;;;;;;;;;;12986482;22;20362;-89
2024/03/21 03:50:25;;;;;;;35.63;23.17;;;;;;;;;;12986433;22;20383;-90
2024/03/21 03:55:28;;;;;;;39.57;23.13;;;;;;;;;;12984738;22;20444;-91
2024/03/21 04:00:30;;;;;;;37.08;22.90;;;;;;;;;;13008162;22;20363;-90
2024/03/21 04:05:33;;;;;;;38.43;22.93;;;;;;;;;;13007549;22;20362;-90
2024/03/21 04:10:36;;;;;;;37.97;22.80;;;;;;;;;;13009218;22;20981;-90
2024/03/21 04:15:38;;;;;;;39.07;21.97;;;;;;;;;;12985273;22;20401;-91
2024/03/21 04:20:41;;;;;;;36.27;22.17;;;;;;;;;;12985843;22;20354;-91
2024/03/21 04:25:44;;;;;;;37.63;23.20;;;;;;;;;;12986838;22;20366;-90
2024/03/21 04:30:46;;;;;;;37.33;21.88;;;;;;;;;;13007440;22;20378;-90
2024/03/21 04:35:51;;;;;;;36.53;22.13;;;;;;;;;;12985237;22;20370;-90
2024/03/21 04:40:54;;;;;;;38.42;22.13;;;;;;;;;;12991413;22;20421;-90
2024/03/21 04:45:59;;;;;;;38.87;21.77;;;;;;;;;;12983920;22;20747;-91
2024/03/21 04:51:01;;;;;;;34.23;21.27;;;;;;;;;;12984690;22;20483;-91
2024/03/21 04:56:06;;;;;;;33.05;20.17;;;;;;;;;;12985440;22;20441;-91
2024/03/21 05:01:09;;;;;;;36.50;21.02;;;;;;;;;;12984645;22;20351;-91
2024/03/21 05:06:11;;;;;;;33.70;21.03;;;;;;;;;;12984827;22;20684;-91
2024/03/21 05:11:15;;;;;;;33.80;20.38;;;;;;;;;;12983682;22;20559;-91
2024/03/21 05:16:17;;;;;;;34.45;21.00;;;;;;;;;;12984252;22;20424;-91
2024/03/21 05:21:19;;;;;;;36.10;20.20;;;;;;;;;;12983493;22;20436;-90
2024/03/21 05:26:23;;;;;;;35.78;22.17;;;;;;;;;;12984359;22;20358;-90
2024/03/21 05:31:26;;;;;;;33.13;20.70;;;;;;;;;;12981878;22;20378;-92
2024/03/21 05:36:29;;;;;;;35.28;20.88;;;;;;;;;;12980380;22;20375;-91
2024/03/21 05:41:32;;;;;;;33.20;20.88;;;;;;;;;;12975770;22;20359;-92
2024/03/21 05:46:34;;;;;;;38.13;20.73;;;;;;;;;;12980435;22;20852;-91
2024/03/21 05:51:36;;;;;;;36.92;21.42;;;;;;;;;;13003335;22;20856;-91
2024/03/21 05:56:40;;;;;;;38.97;21.53;;;;;;;;;;12983629;22;20359;-93
2024/03/21 06:01:42;;;;;;;35.83;21.17;;;;;;;;;;12976427;22;20397;-93
2024/03/21 06:06:45;;;;;;;37.85;21.10;;;;;;;;;;12977065;22;20350;-91
2024/03/21 06:11:49;;;;;;;36.50;22.30;;;;;;;;;;12998121;22;20704;-90
2024/03/21 06:16:51;;;;;;;40.70;22.90;;;;;;;;;;12975988;22;20733;-90
2024/03/21 06:21:54;;;;;;;41.72;24.27;;;;;;;;;;12981474;22;20847;-90
2024/03/21 06:26:58;;;;;;;44.25;24.80;;;;;;;;;;12978743;22;20416;-90
2024/03/21 06:32:00;;;;;;;46.83;26.10;;;;;;;;;;12982720;22;20691;-90
2024/03/21 06:37:02;;;;;;;46.58;26.38;;;;;;;;;;12970393;22;20444;-90
2024/03/21 06:42:06;;;;;;;48.58;28.02;;;;;;;;;;12979367;22;20362;-90
2024/03/21 06:47:08;;;;;;;50.10;27.27;;;;;;;;;;12990949;22;20363;-91
2024/03/21 06:52:11;;;;;;;52.53;25.83;;;;;;;;;;12982060;22;20460;-92
2024/03/21 06:57:14;;;;;;;52.43;25.57;;;;;;;;;;12982563;22;20489;-92
2024/03/21 07:02:17;;;;;;;45.40;25.88;;;;;;;;;;13006081;22;20366;-95
2024/03/21 07:07:19;;;;;;;46.57;24.93;;;;;;;;;;12988053;22;20363;-95
2024/03/21 07:12:22;;;;;;;50.42;26.35;;;;;;;;;;12986686;22;20862;-94
2024/03/21 07:17:26;;;;;;;51.50;25.53;;;;;;;;;;12987002;22;20371;-95
2024/03/21 07:22:28;;;;;;;49.55;26.15;;;;;;;;;;12988069;22;20411;-95
2024/03/21 07:27:32;;;;;;;47.50;26.23;;;;;;;;;;12984342;22;20452;-95
2024/03/21 07:32:34;;;;;;;47.95;26.42;;;;;;;;;;12985774;22;20378;-94
2024/03/21 07:37:37;;;;;;;47.15;26.33;;;;;;;;;;12959522;22;20433;-95
2024/03/21 07:42:40;;;;;;;46.10;24.77;;;;;;;;;;12986033;22;20425;-95
2024/03/21 07:47:44;;;;;;;46.15;24.75;;;;;;;;;;12984571;22;20371;-95
2024/03/21 07:52:46;;;;;;;51.67;25.98;;;;;;;;;;12984267;22;20723;-89
2024/03/21 07:57:49;;;;;;;46.83;25.00;;;;;;;;;;12982683;22;21091;-91
2024/03/21 08:02:51;;;;;;;46.88;24.77;;;;;;;;;;12985346;22;20370;-90
2024/03/21 08:07:53;;;;;;;47.43;24.60;;;;;;;;;;12984530;22;20366;-94
2024/03/21 08:12:57;;;;;;;50.15;25.23;;;;;;;;;;12985882;22;20382;-94
2024/03/21 08:17:59;;;;;;;47.95;25.42;;;;;;;;;;13006770;22;20389;-94
2024/03/21 08:23:01;;;;;;;46.55;25.55;;;;;;;;;;12985798;22;20370;-94
2024/03/21 08:28:05;;;;;;;49.30;25.75;;;;;;;;;;12991518;22;20433;-94
2024/03/21 08:33:07;;;;;;;47.90;25.30;;;;;;;;;;12983672;22;20449;-93
2024/03/21 08:38:10;;;;;;;47.53;24.80;;;;;;;;;;12996836;22;20363;-92
2024/03/21 08:43:14;;;;;;;47.92;25.70;;;;;;;;;;12989222;22;20362;-94
2024/03/21 08:48:16;;;;;;;50.08;25.45;;;;;;;;;;12986068;22;20445;-93
2024/03/21 08:53:19;;;;;;;47.95;25.50;;;;;;;;;;12985606;22;20924;-93
2024/03/21 08:58:22;;;;;;;43.58;24.95;;;;;;;;;;12983445;22;20371;-94
2024/03/21 09:03:24;;;;;;;48.17;25.57;;;;;;;;;;13004084;22;20437;-93
2024/03/21 09:08:26;;;;;;;49.50;26.50;;;;;;;;;;12984095;22;20366;-93
2024/03/21 09:13:31;;;;;;;49.33;28.33;;;;;;;;;;12982859;22;20390;-93
2024/03/21 09:18:35;;;;;;;48.80;26.60;;;;;;;;;;12983680;22;20367;-93
2024/03/21 09:23:37;;;;;;;51.83;27.00;;;;;;;;;;12984834;22;20370;-93
2024/03/21 09:28:41;;;;;;;46.83;25.80;;;;;;;;;;12984436;22;20366;-93
2024/03/21 09:33:43;;;;;;;46.97;26.38;;;;;;;;;;12982310;22;20700;-93
2024/03/21 09:38:45;;;;;;;49.83;25.87;;;;;;;;;;13004440;22;20386;-93
2024/03/21 09:43:49;;;;;;;45.67;25.73;;;;;;;;;;12982801;22;20480;-91
2024/03/21 09:48:51;;;;;;;43.22;23.80;;;;;;;;;;12976490;22;20751;-92
2024/03/21 09:53:55;;;;;;;49.53;26.02;;;;;;;;;;12976474;22;20382;-92
2024/03/21 09:58:58;;;;;;;46.95;26.38;;;;;;;;;;12975415;22;20417;-92
2024/03/21 10:04:00;;;;;;;47.80;26.65;;;;;;;;;;12978053;22;20436;-92
2024/03/21 10:09:03;;;;;;;47.78;26.73;;;;;;;;;;12982361;22;20901;-92
2024/03/21 10:14:06;;;;;;;50.83;27.88;;;;;;;;;;12982340;22;20386;-92
2024/03/21 10:19:11;;;;;;;47.13;26.80;;;;;;;;;;12979690;22;20397;-92
2024/03/21 10:24:15;;;;;;;46.30;26.50;;;;;;;;;;12979871;22;20359;-92
2024/03/21 10:29:19;;;;;;;47.40;27.10;;;;;;;;;;12981006;22;20375;-92
2024/03/21 10:34:24;;;;;;;48.87;27.17;;;;;;;;;;12979021;22;20940;-93
2024/03/21 10:39:26;;;;;;;49.30;27.50;;;;;;;;;;12979169;22;20378;-92
2024/03/21 10:44:31;;;;;;;49.45;27.58;;;;;;;;;;12991263;22;20913;-92
2024/03/21 10:49:34;;;;;;;50.23;28.27;;;;;;;;;;12980729;22;20371;-93
2024/03/21 10:54:39;;;;;;;49.92;28.27;;;;;;;;;;12987659;22;20386;-90
2024/03/21 10:59:43;;;;;;;48.57;27.27;;;;;;;;;;12978827;22;20432;-93
2024/03/21 11:04:45;;;;;;;51.20;28.00;;;;;;;;;;12979467;22;20500;-92
2024/03/21 11:09:49;;;;;;;46.97;26.45;;;;;;;;;;12977722;22;20413;-93
2024/03/21 11:14:53;;;;;;;45.05;25.42;;;;;;;;;;12978485;22;20767;-92
2024/03/21 11:19:56;;;;;;;48.72;27.40;;;;;;;;;;12979687;22;20375;-93
2024/03/21 11:25:00;;;;;;;47.80;27.27;;;;;;;;;;12979099;22;20440;-92
2024/03/21 11:30:06;;;;;;;46.65;26.67;;;;;;;;;;12979112;22;20452;-91
2024/03/21 11:35:08;;;;;;;43.75;26.23;;;;;;;;;;12978045;22;20447;-92
2024/03/21 11:40:13;;;;;;;45.72;25.80;;;;;;;;;;12977652;22;20374;-93
2024/03/21 11:45:16;;;;;;;45.97;26.33;;;;;;;;;;12978405;22;20379;-92
2024/03/21 11:50:19;;;;;;;46.30;26.23;;;;;;;;;;12977300;22;20399;-93
2024/03/21 11:55:22;;;;;;;44.53;26.58;;;;;;;;;;12978009;22;20859;-93
2024/03/21 12:00:26;;;;;;;47.42;26.33;;;;;;;;;;12987321;22;20366;-94
2024/03/21 12:05:28;;;;;;;42.43;24.90;;;;;;;;;;12978138;22;20427;-92
2024/03/21 12:10:31;;;;;;;44.28;24.65;;;;;;;;;;12975940;22;20428;-92
2024/03/21 12:15:34;;;;;;;45.03;26.70;;;;;;;;;;12971348;22;20495;-91
2024/03/21 12:20:36;;;;;;;46.50;26.33;;;;;;;;;;12966363;22;21074;-90
2024/03/21 12:25:39;;;;;;;44.88;26.20;;;;;;;;;;12958861;22;20498;-91
2024/03/21 12:30:42;;;;;;;42.78;25.20;;;;;;;;;;12964559;22;20437;-90
2024/03/21 12:35:44;;;;;;;40.50;24.42;;;;;;;;;;12968480;22;20374;-91
2024/03/21 12:40:47;;;;;;;43.90;24.80;;;;;;;;;;12968341;22;20500;-91
2024/03/21 12:45:52;;;;;;;42.10;24.60;;;;;;;;;;12964856;22;20444;-90
2024/03/21 12:50:54;;;;;;;43.35;25.17;;;;;;;;;;12965045;22;20382;-95
2024/03/21 12:55:56;;;;;;;44.93;25.33;;;;;;;;;;12968218;22;20453;-95
2024/03/21 13:01:00;;;;;;;45.03;25.83;;;;;;;;;;12966873;22;20790;-89
2024/03/21 13:06:03;;;;;;;42.53;24.73;;;;;;;;;;12973717;22;20757;-90
2024/03/21 13:11:05;;;;;;;44.07;25.30;;;;;;;;;;12979194;22;20370;-90
2024/03/21 13:16:09;;;;;;;43.50;25.38;;;;;;;;;;12978336;22;20826;-90
2024/03/21 13:21:11;;;;;;;41.13;25.33;;;;;;;;;;12974002;22;20383;-90
2024/03/21 13:26:13;;;;;;;43.08;25.42;;;;;;;;;;12973506;22;20370;-90
2024/03/21 13:31:17;;;;;;;45.80;25.57;;;;;;;;;;12974589;22;20379;-90
2024/03/21 14:12:44;;;;;;;38.65;23.25;;;;;;;;;;13033149;22;20381;-89
2024/03/21 14:17:46;;;;;;;38.45;23.17;;;;;;;;;;13037541;22;20675;-88
2024/03/21 14:22:51;;;;;;;39.40;23.83;;;;;;;;;;13035093;22;20424;-89
2024/03/21 14:27:55;;;;;;;39.23;23.33;;;;;;;;;;13051590;22;20430;-89
2024/03/21 14:32:57;;;;;;;39.80;24.23;;;;;;;;;;13029637;22;20438;-89
2024/03/21 14:38:00;;;;;;;38.90;23.40;;;;;;;;;;13021944;22;20364;-89
2024/03/21 14:43:04;;;;;;;34.65;21.63;;;;;;;;;;13036275;22;20364;-89
2024/03/21 14:48:07;;;;;;;36.23;22.60;;;;;;;;;;13035015;22;20391;-88
2024/03/21 14:53:09;;;;;;;34.72;20.67;;;;;;;;;;13038617;22;20419;-90
2024/03/21 14:58:13;;;;;;;31.42;19.55;;;;;;;;;;13043682;22;20442;-89
2024/03/21 15:03:15;;;;;;;32.08;19.17;;;;;;;;;;13037795;22;20377;-89
2024/03/21 15:08:19;;;;;;;32.28;19.00;;;;;;;;;;13045868;22;20377;-89
2024/03/21 15:13:24;;;;;;;31.73;18.30;;;;;;;;;;13039058;22;20434;-95
2024/03/21 15:18:27;;;;;;;32.55;18.35;;;;;;;;;;13034679;22;20389;-94
2024/03/21 15:23:30;;;;;;;34.22;18.40;;;;;;;;;;13040031;22;20463;-94
2024/03/21 15:28:33;;;;;;;27.33;17.92;;;;;;;;;;13041818;22;20434;-92
2024/03/21 15:33:36;;;;;;;31.45;17.88;;;;;;;;;;13043025;22;20767;-91
2024/03/21 15:38:38;;;;;;;29.83;17.87;;;;;;;;;;13074409;22;20361;-92
2024/03/21 15:43:43;;;;;;;26.60;16.83;;;;;;;;;;13041492;22;20548;-90
2024/03/21 15:48:45;;;;;;;28.77;18.17;;;;;;;;;;13035891;22;20422;-92
2024/03/21 15:53:47;;;;;;;28.92;16.95;;;;;;;;;;13039039;22;20430;-90
2024/03/21 15:58:51;;;;;;;27.20;16.83;;;;;;;;;;13032035;22;20385;-92
2024/03/21 16:03:54;;;;;;;29.30;17.83;;;;;;;;;;13034339;22;20381;-90
2024/03/21 16:08:57;;;;;;;30.08;18.13;;;;;;;;;;13040151;22;21265;-91
2024/03/21 16:14:00;;;;;;;27.95;18.05;;;;;;;;;;13037931;22;20419;-91
2024/03/21 16:19:02;;;;;;;27.33;17.53;;;;;;;;;;13039358;22;20381;-91
2024/03/21 16:24:05;;;;;;;29.45;18.30;;;;;;;;;;13039189;22;20380;-91
2024/03/21 16:29:09;;;;;;;26.23;17.53;;;;;;;;;;13038516;22;20380;-93
2024/03/21 16:34:11;;;;;;;30.73;18.23;;;;;;;;;;13038596;22;20411;-92
2024/03/21 16:39:15;;;;;;;31.85;18.40;;;;;;;;;;13038457;22;20420;-92
2024/03/21 16:44:19;;;;;;;29.87;18.43;;;;;;;;;;13037815;22;20678;-91
2024/03/21 16:49:21;;;;;;;30.23;18.52;;;;;;;;;;13036173;22;20373;-88
2024/03/21 16:54:23;;;;;;;32.60;19.77;;;;;;;;;;13034934;22;20381;-88
2024/03/21 16:59:27;;;;;;;36.37;20.90;;;;;;;;;;13031625;22;20510;-90
2024/03/21 17:04:30;;;;;;;36.25;21.92;;;;;;;;;;13042724;22;20459;-90
2024/03/21 17:09:33;;;;;;;37.85;22.88;;;;;;;;;;13040134;22;20373;-88
2024/03/21 17:14:36;;;;;;;37.67;21.23;;;;;;;;;;13036661;22;20454;-92
2024/03/21 17:19:39;;;;;;;39.95;21.92;;;;;;;;;;13037118;22;20380;-90
2024/03/21 17:24:42;;;;;;;41.42;23.80;;;;;;;;;;13037157;22;20705;-90
2024/03/21 17:29:45;;;;;;;44.65;24.23;;;;;;;;;;13030647;22;20380;-92
2024/03/21 17:34:48;;;;;;;44.22;24.23;;;;;;;;;;13035229;22;20377;-91
2024/03/21 17:39:51;;;;;;;46.53;25.13;;;;;;;;;;13052961;22;20372;-94
2024/03/21 17:44:54;;;;;;;44.90;24.73;;;;;;;;;;13038951;22;20357;-93
2024/03/21 17:49:57;;;;;;;46.78;26.38;;;;;;;;;;13039914;22;20373;-95
2024/03/21 17:54:59;;;;;;;51.88;28.40;;;;;;;;;;13045525;22;20385;-93
2024/03/21 18:00:03;;;;;;;46.80;26.80;;;;;;;;;;13037613;22;20373;-92
2024/03/21 18:05:07;;;;;;;50.17;28.48;;;;;;;;;;13037654;22;20381;-92
2024/03/21 18:10:11;;;;;;;55.50;32.20;;;;;;;;;;13042496;22;20842;-91
2024/03/21 18:15:16;;;;;;;55.63;31.63;;;;;;;;;;13042274;22;20381;-92
2024/03/21 18:20:24;;;;;;;52.28;29.73;;;;;;;;;;13035415;22;20376;-92
2024/03/21 18:25:44;;;;;;;48.67;26.52;;;;;;;;;;13039269;22;20434;-92
2024/03/21 18:30:48;;;;;;;52.33;29.08;;;;;;;;;;13012699;22;20365;-91
2024/03/21 18:35:54;;;;;;;49.47;27.63;;;;;;;;;;13044382;22;20381;-89
2024/03/21 18:41:00;;;;;;;49.63;29.03;;;;;;;;;;13044878;22;20804;-90
2024/03/21 18:46:05;;;;;;;48.63;28.77;;;;;;;;;;13044179;22;20411;-91
2024/03/21 18:51:07;;;;;;;58.83;31.52;;;;;;;;;;13044691;22;20364;-90
2024/03/21 18:56:10;;;;;;;60.22;33.28;;;;;;;;;;13042320;22;20857;-90
2024/03/21 19:01:15;;;;;;;61.17;33.50;;;;;;;;;;13042972;22;21072;-88
2024/03/21 19:06:19;;;;;;;58.43;34.20;;;;;;;;;;13042405;22;20426;-90
2024/03/21 19:11:21;;;;;;;55.40;31.58;;;;;;;;;;13037039;22;20377;-86
2024/03/21 19:16:25;;;;;;;53.07;30.43;;;;;;;;;;13044495;22;20445;-93
2024/03/21 19:21:28;;;;;;;53.23;30.60;;;;;;;;;;13044648;22;20376;-92
2024/03/21 19:26:30;;;;;;;51.58;30.45;;;;;;;;;;13049372;22;20369;-94
2024/03/21 19:31:36;;;;;;;53.53;32.03;;;;;;;;;;13039593;22;20376;-94
2024/03/21 19:36:40;;;;;;;54.85;33.40;;;;;;;;;;13041706;22;20388;-91
2024/03/21 19:41:42;;;;;;;53.00;32.80;;;;;;;;;;13039811;22;20385;-92
2024/03/21 19:46:46;;;;;;;54.05;33.22;;;;;;;;;;13053900;22;20913;-91
2024/03/21 19:51:50;;;;;;;56.03;34.03;;;;;;;;;;13034835;22;20438;-92
2024/03/21 19:56:53;;;;;;;54.22;32.53;;;;;;;;;;13028744;22;20765;-92
2024/03/21 20:01:58;;;;;;;51.30;30.23;;;;;;;;;;13037273;22;20706;-91
2024/03/21 20:07:02;;;;;;;54.03;31.27;;;;;;;;;;13041002;22;20706;-93
2024/03/21 20:12:05;;;;;;;47.43;28.57;;;;;;;;;;13041049;22;20422;-92
2024/03/21 20:17:09;;;;;;;51.10;29.05;;;;;;;;;;13040752;22;20376;-92
2024/03/21 20:22:13;;;;;;;54.33;30.42;;;;;;;;;;13043141;22;20373;-92
2024/03/21 20:27:16;;;;;;;57.22;31.52;;;;;;;;;;13040634;22;20644;-92
2024/03/21 20:32:21;;;;;;;51.00;29.33;;;;;;;;;;13041813;22;20453;-93
2024/03/21 20:37:24;;;;;;;55.35;30.17;;;;;;;;;;13038704;22;20385;-92
2024/03/21 20:42:27;;;;;;;65.10;34.80;;;;;;;;;;13052319;22;20407;-94
2024/03/21 20:47:32;;;;;;;56.58;32.08;;;;;;;;;;13041116;22;20434;-93
2024/03/21 20:52:35;;;;;;;53.75;32.05;;;;;;;;;;13055723;22;20422;-93
2024/03/21 20:57:38;;;;;;;53.25;32.28;;;;;;;;;;13037048;22;20381;-92
2024/03/21 21:02:46;;;;;;;53.43;33.00;;;;;;;;;;13039599;22;20980;-91
2024/03/21 21:07:49;;;;;;;56.60;33.78;;;;;;;;;;13034976;22;20403;-92
2024/03/21 21:12:51;;;;;;;58.75;33.65;;;;;;;;;;13062193;22;20414;-94
2024/03/21 21:17:55;;;;;;;58.70;33.50;;;;;;;;;;13037250;22;20442;-91
2024/03/21 21:23:00;;;;;;;65.70;36.55;;;;;;;;;;13031066;22;20458;-94
2024/03/21 21:28:04;;;;;;;68.07;37.83;;;;;;;;;;13029383;22;20686;-94
2024/03/21 21:33:09;;;;;;;61.90;37.05;;;;;;;;;;13030714;22;20377;-95
2024/03/21 21:38:12;;;;;;;67.50;38.58;;;;;;;;;;13029192;22;20411;-94
2024/03/21 21:43:16;;;;;;;60.22;36.50;;;;;;;;;;13036933;22;20697;-95
2024/03/21 21:48:24;;;;;;;62.13;36.05;;;;;;;;;;13033079;22;20430;-94
2024/03/21 21:53:28;;;;;;;65.43;37.23;;;;;;;;;;13035484;22;20381;-95
2024/03/21 21:58:31;;;;;;;60.63;36.10;;;;;;;;;;13033566;22;20377;-94
2024/03/21 22:03:35;;;;;;;65.47;38.10;;;;;;;;;;13037839;22;20372;-94
2024/03/21 22:08:40;;;;;;;60.53;35.45;;;;;;;;;;13038543;22;20373;-93
2024/03/21 22:13:45;;;;;;;59.47;35.95;;;;;;;;;;13035965;22;20360;-92
2024/03/21 22:18:49;;;;;;;67.00;36.38;;;;;;;;;;13036788;22;20364;-94
2024/03/21 22:23:51;;;;;;;61.60;36.23;;;;;;;;;;13034468;22;20381;-94
2024/03/21 22:28:55;;;;;;;64.38;35.60;;;;;;;;;;13036283;22;20410;-93
2024/03/21 22:33:59;;;;;;;59.50;34.25;;;;;;;;;;13043797;22;20377;-93
2024/03/21 22:39:03;;;;;;;63.47;35.10;;;;;;;;;;13045305;22;20430;-94
2024/03/21 22:44:06;;;;;;;64.22;35.20;;;;;;;;;;13046507;22;20365;-94
2024/03/21 22:49:10;;;;;;;56.78;33.65;;;;;;;;;;13044602;22;20357;-91
2024/03/21 22:54:12;;;;;;;58.08;33.33;;;;;;;;;;13046189;22;20385;-94
2024/03/21 22:59:14;;;;;;;59.28;34.83;;;;;;;;;;13045233;22;20423;-94
2024/03/21 23:04:19;;;;;;;57.67;32.67;;;;;;;;;;13069284;22;20829;-94
2024/03/21 23:09:21;;;;;;;53.67;31.77;;;;;;;;;;13046594;22;20418;-94
2024/03/21 23:14:23;;;;;;;52.53;30.98;;;;;;;;;;13049242;22;20411;-94
2024/03/21 23:19:29;;;;;;;57.15;32.70;;;;;;;;;;13050409;22;20365;-93
2024/03/21 23:24:31;;;;;;;57.63;32.40;;;;;;;;;;13049982;22;20419;-93
2024/03/21 23:29:33;;;;;;;55.35;32.00;;;;;;;;;;13047632;22;20906;-93
2024/03/21 23:34:37;;;;;;;60.83;33.22;;;;;;;;;;13049013;22;20407;-93
2024/03/21 23:39:39;;;;;;;55.17;31.83;;;;;;;;;;13047320;22;20365;-93
2024/03/21 23:44:41;;;;;;;53.70;30.25;;;;;;;;;;13047927;22;20391;-93
2024/03/21 23:49:45;;;;;;;54.38;31.33;;;;;;;;;;13048616;22;20369;-93
2024/03/21 23:54:48;;;;;;;55.75;31.08;;;;;;;;;;13042785;22;20381;-94
2024/03/21 23:59:50;;;;;;;56.35;31.48;;;;;;;;;;13042727;22;20701;-94
